createdAt,value
2019-03-23T00:03:50.812Z,13.60
2019-03-23T00:08:57.388Z,12.90
2019-03-23T00:14:04.911Z,13.00
2019-03-23T00:19:11.553Z,12.33
2019-03-23T00:24:18.198Z,11.57
2019-03-23T00:29:24.693Z,11.50
2019-03-23T00:34:31.229Z,11.47
2019-03-23T00:39:37.931Z,11.30
2019-03-23T00:44:44.542Z,11.20
2019-03-23T00:49:51.196Z,10.03
2019-03-23T00:54:57.781Z,11.07
2019-03-23T01:00:04.699Z,12.30
2019-03-23T01:05:11.721Z,10.97
2019-03-23T01:10:18.268Z,11.70
2019-03-23T01:15:24.882Z,11.30
2019-03-23T01:20:31.540Z,11.07
2019-03-23T01:25:38.380Z,11.13
2019-03-23T01:30:45.016Z,11.37
2019-03-23T01:35:51.623Z,11.67
2019-03-23T01:40:58.184Z,10.90
2019-03-23T01:46:04.958Z,10.37
2019-03-23T01:51:11.598Z,11.70
2019-03-23T01:56:18.255Z,10.87
2019-03-23T02:01:25.789Z,10.90
2019-03-23T02:06:32.479Z,10.17
2019-03-23T02:11:39.051Z,10.93
2019-03-23T02:16:45.657Z,10.00
2019-03-23T02:21:52.246Z,10.53
2019-03-23T02:26:58.881Z,10.73
2019-03-23T02:32:05.399Z,10.30
2019-03-23T02:37:12.073Z,10.10
2019-03-23T02:42:19.095Z,10.17
2019-03-23T02:47:25.694Z,10.57
2019-03-23T02:52:32.265Z,10.20
2019-03-23T02:57:38.835Z,10.13
2019-03-23T03:02:45.570Z,10.23
2019-03-23T03:07:52.218Z,10.70
2019-03-23T03:12:58.884Z,10.67
2019-03-23T03:18:05.598Z,10.63
2019-03-23T03:23:12.318Z,10.23
2019-03-23T03:28:18.926Z,10.73
2019-03-23T03:33:25.553Z,10.67
2019-03-23T03:38:32.169Z,10.50
2019-03-23T03:43:38.817Z,10.67
2019-03-23T03:48:45.353Z,10.80
2019-03-23T03:53:51.828Z,11.53
2019-03-23T03:58:58.527Z,11.73
2019-03-23T04:04:05.188Z,10.80
2019-03-23T04:09:11.700Z,10.70
2019-03-23T04:14:18.195Z,10.27
2019-03-23T04:19:24.755Z,11.53
2019-03-23T04:24:31.342Z,11.10
2019-03-23T04:29:37.994Z,11.63
2019-03-23T04:34:44.551Z,11.33
2019-03-23T04:39:51.203Z,12.07
2019-03-23T04:44:58.826Z,11.10
2019-03-23T04:50:05.878Z,11.77
2019-03-23T04:55:13.063Z,11.27
2019-03-23T05:00:20.348Z,12.17
2019-03-23T05:05:26.933Z,10.73
2019-03-23T05:10:33.566Z,9.93
2019-03-23T05:15:40.107Z,9.77
2019-03-23T05:20:46.671Z,11.03
2019-03-23T05:25:53.368Z,10.30
2019-03-23T05:31:00.028Z,10.80
2019-03-23T05:36:06.671Z,11.23
2019-03-23T05:41:13.255Z,11.53
2019-03-23T05:46:20.875Z,10.87
2019-03-23T05:51:27.526Z,11.23
2019-03-23T05:56:34.104Z,11.43
2019-03-23T06:01:40.671Z,10.93
2019-03-23T06:06:47.186Z,10.80
2019-03-23T06:11:53.814Z,11.07
2019-03-23T06:17:00.460Z,11.03
2019-03-23T06:22:06.933Z,10.87
2019-03-23T06:27:13.519Z,12.30
2019-03-23T06:32:20.839Z,22.37
2019-03-23T06:37:27.516Z,13.70
2019-03-23T06:42:34.219Z,10.00
2019-03-23T06:47:40.791Z,9.37
2019-03-23T06:52:47.460Z,11.43
2019-03-23T06:57:53.967Z,11.40
2019-03-23T07:03:00.624Z,12.40
2019-03-23T07:08:07.258Z,12.20
2019-03-23T07:13:13.897Z,11.43
2019-03-23T07:18:20.521Z,11.17
2019-03-23T07:23:27.063Z,11.10
2019-03-23T07:28:33.673Z,10.53
2019-03-23T07:33:40.125Z,10.43
2019-03-23T07:38:46.602Z,10.63
2019-03-23T07:43:53.041Z,10.27
2019-03-23T07:48:59.641Z,8.20
2019-03-23T07:54:06.290Z,7.30
2019-03-23T07:59:12.991Z,6.50
2019-03-23T08:04:19.620Z,4.93
2019-03-23T08:09:37.406Z,3.57
2019-03-23T08:14:36.302Z,3.60
2019-03-23T08:19:43.024Z,3.73
2019-03-23T08:24:49.694Z,4.13
2019-03-23T08:29:56.422Z,3.80
2019-03-23T08:35:03.088Z,3.77
2019-03-23T08:40:09.752Z,4.00
2019-03-23T08:45:17.518Z,3.83
2019-03-23T08:50:24.126Z,4.23
2019-03-23T08:55:30.788Z,3.90
2019-03-23T09:00:37.356Z,4.23
2019-03-23T09:05:44.050Z,5.37
2019-03-23T09:10:51.697Z,4.07
2019-03-23T09:15:58.172Z,4.57
2019-03-23T09:21:04.770Z,3.93
2019-03-23T09:26:13.587Z,4.03
2019-03-23T09:31:19.430Z,4.40
2019-03-23T09:36:26.143Z,4.60
2019-03-23T09:41:33.644Z,5.53
2019-03-23T09:46:40.116Z,6.30
2019-03-23T09:51:46.644Z,8.00
2019-03-23T09:56:53.284Z,6.42
2019-03-23T10:01:59.959Z,7.00
2019-03-23T10:07:06.437Z,7.20
2019-03-23T10:12:13.063Z,7.45
2019-03-23T10:17:19.672Z,7.25
2019-03-23T10:22:26.246Z,6.22
2019-03-23T10:27:32.861Z,7.92
2019-03-23T10:32:39.491Z,7.45
2019-03-23T10:37:46.114Z,8.73
2019-03-23T10:42:52.623Z,8.28
2019-03-23T10:47:59.175Z,8.65
2019-03-23T10:53:05.775Z,8.98
2019-03-23T10:58:12.432Z,9.90
2019-03-23T11:03:19.056Z,9.25
2019-03-23T11:08:25.731Z,8.95
2019-03-23T11:13:32.329Z,8.20
2019-03-23T11:18:38.876Z,9.98
2019-03-23T11:23:45.631Z,9.18
2019-03-23T11:28:52.319Z,19.02
2019-03-23T11:33:58.979Z,8.58
2019-03-23T11:39:08.230Z,10.03
2019-03-23T11:44:14.835Z,8.63
2019-03-23T11:49:21.414Z,7.97
2019-03-23T11:54:27.884Z,10.73
2019-03-23T11:59:34.449Z,12.50
2019-03-23T12:04:41.167Z,9.90
2019-03-23T12:09:47.636Z,9.95
2019-03-23T12:14:54.219Z,9.60
2019-03-23T12:20:00.812Z,8.90
2019-03-23T12:25:07.724Z,10.45
2019-03-23T12:30:16.226Z,11.53
2019-03-23T12:35:23.773Z,13.03
2019-03-23T12:40:30.442Z,12.78
2019-03-23T12:45:38.823Z,14.85
2019-03-23T12:50:45.261Z,12.23
2019-03-23T12:55:51.957Z,14.45
2019-03-23T13:00:58.628Z,13.45
2019-03-23T13:06:05.233Z,13.03
2019-03-23T13:11:11.835Z,13.32
2019-03-23T13:16:18.401Z,12.93
2019-03-23T13:21:25.031Z,13.15
2019-03-23T13:26:31.461Z,13.35
2019-03-23T13:31:39.070Z,13.68
2019-03-23T13:36:45.694Z,14.50
2019-03-23T13:41:52.786Z,14.45
2019-03-23T13:46:59.464Z,14.05
2019-03-23T13:52:06.038Z,14.78
2019-03-23T13:57:12.697Z,14.40
2019-03-23T14:02:19.340Z,13.17
2019-03-23T14:07:25.995Z,15.27
2019-03-23T14:12:32.503Z,13.47
2019-03-23T14:17:39.089Z,14.17
2019-03-23T14:22:45.535Z,13.90
2019-03-23T14:27:52.183Z,13.57
2019-03-23T14:32:58.739Z,13.70
2019-03-23T14:38:05.415Z,14.00
2019-03-23T14:43:12.025Z,13.13
2019-03-23T14:48:18.630Z,14.17
2019-03-23T14:53:25.225Z,13.23
2019-03-23T14:58:31.871Z,13.17
2019-03-23T15:03:38.464Z,14.57
2019-03-23T15:08:45.176Z,16.70
2019-03-23T15:13:51.836Z,21.47
2019-03-23T15:18:58.659Z,25.53
2019-03-23T15:24:05.452Z,27.93
2019-03-23T15:29:12.077Z,27.57
2019-03-23T15:34:18.695Z,21.30
2019-03-23T15:39:25.392Z,20.87
2019-03-23T15:44:32.210Z,22.37
2019-03-23T15:49:38.882Z,17.50
2019-03-23T15:54:45.345Z,17.10
2019-03-23T15:59:51.937Z,16.00
2019-03-23T16:04:59.688Z,17.23
2019-03-23T16:10:06.655Z,16.07
2019-03-23T16:15:14.659Z,15.23
2019-03-23T16:20:21.268Z,17.00
2019-03-23T16:25:27.938Z,18.07
2019-03-23T16:30:35.046Z,18.53
2019-03-23T16:35:41.641Z,17.80
2019-03-23T16:40:48.301Z,18.47
2019-03-23T16:45:54.806Z,21.60
2019-03-23T16:51:01.600Z,22.07
2019-03-23T16:56:08.276Z,25.87
2019-03-23T17:01:14.861Z,32.13
2019-03-23T17:06:21.585Z,39.20
2019-03-23T17:11:28.286Z,40.27
2019-03-23T17:16:35.992Z,42.60
2019-03-23T17:21:42.590Z,43.70
2019-03-23T17:26:49.239Z,43.50
2019-03-23T17:31:57.144Z,44.40
2019-03-23T17:37:03.636Z,43.73
2019-03-23T17:42:11.455Z,41.90
2019-03-23T17:47:18.045Z,41.70
2019-03-23T17:52:24.609Z,40.37
2019-03-23T17:57:31.292Z,39.13
2019-03-23T18:02:38.039Z,40.93
2019-03-23T18:07:45.725Z,39.40
2019-03-23T18:12:52.293Z,38.33
2019-03-23T18:17:59.008Z,38.43
2019-03-23T18:23:05.915Z,36.30
2019-03-23T18:28:12.509Z,36.17
2019-03-23T18:33:19.176Z,33.27
2019-03-23T18:38:25.749Z,31.47
2019-03-23T18:43:32.447Z,30.47
2019-03-23T18:48:39.044Z,29.87
2019-03-23T18:53:45.742Z,29.67
2019-03-23T18:58:52.356Z,29.93
2019-03-23T19:03:58.930Z,34.60
2019-03-23T19:09:07.206Z,31.30
2019-03-23T19:14:13.952Z,28.73
2019-03-23T19:19:20.681Z,29.60
2019-03-23T19:24:27.299Z,28.83
2019-03-23T19:29:33.869Z,28.20
2019-03-23T19:34:40.397Z,27.07
2019-03-23T19:39:47.044Z,27.03
2019-03-23T19:44:53.537Z,27.33
2019-03-23T19:50:00.338Z,27.00
2019-03-23T19:55:06.909Z,27.23
2019-03-23T20:00:13.701Z,27.93
2019-03-23T20:05:20.307Z,27.40
2019-03-23T20:10:26.986Z,26.67
2019-03-23T20:15:33.589Z,31.73
2019-03-23T20:20:40.237Z,28.87
2019-03-23T20:25:46.968Z,28.10
2019-03-23T20:30:53.622Z,28.63
2019-03-23T20:36:00.158Z,26.77
2019-03-23T20:41:06.805Z,28.33
2019-03-23T20:46:13.438Z,26.70
2019-03-23T20:51:20.379Z,26.40
2019-03-23T20:56:27.029Z,25.23
2019-03-23T21:01:33.553Z,26.27
2019-03-23T21:06:40.143Z,26.43
2019-03-23T21:11:46.640Z,27.63
2019-03-23T21:16:53.232Z,27.40
2019-03-23T21:21:59.997Z,26.83
2019-03-23T21:27:06.498Z,27.40
2019-03-23T21:32:13.179Z,26.97
2019-03-23T21:37:19.662Z,27.43
2019-03-23T21:42:26.372Z,28.00
2019-03-23T21:47:32.987Z,27.80
2019-03-23T21:52:39.639Z,31.83
2019-03-23T21:57:46.479Z,28.53
2019-03-23T22:02:53.261Z,29.67
2019-03-23T22:07:59.740Z,27.60
2019-03-23T22:13:07.477Z,27.93
2019-03-23T22:18:14.026Z,27.97
2019-03-23T22:23:20.718Z,28.73
2019-03-23T22:28:27.421Z,28.60
2019-03-23T22:33:34.864Z,29.53
2019-03-23T22:38:41.590Z,28.57
2019-03-23T22:43:48.272Z,28.70
2019-03-23T22:48:54.980Z,28.33
2019-03-23T22:54:01.622Z,28.53
2019-03-23T22:59:08.226Z,29.73
2019-03-23T23:04:14.801Z,28.47
2019-03-23T23:09:21.207Z,28.67
2019-03-23T23:14:27.801Z,30.50
2019-03-23T23:19:34.472Z,30.53
2019-03-23T23:24:40.941Z,30.23
2019-03-23T23:29:47.661Z,29.53
2019-03-23T23:34:54.252Z,31.03
2019-03-23T23:40:00.720Z,29.10
2019-03-23T23:45:15.295Z,29.67
2019-03-23T23:50:16.658Z,27.17
2019-03-23T23:55:23.248Z,31.07
